Time;durP1;ratioP1;P1;durP2;ratioP2;P2;SDS_P1;SDS_P2;PMS_P1;PMS_P2;Temp;Humidity;BMP_temperature;BMP_pressure;BME280_temperature;BME280_humidity;BME280_pressure;Samples;Min_cycle;Max_cycle;Signal;HPM_P1;HPM_P2
2023/05/19 00:02:07;;;;;;;;;;;8.60;55.10;;;;;;4115547;28;19929;-85
2023/05/19 00:04:11;;;;;;;;;;;8.50;55.20;;;;;;4115234;28;19918;-84
2023/05/19 00:06:12;;;;;;;;;;;8.50;55.20;;;;;;4094411;28;19922;-84
2023/05/19 00:08:17;;;;;;;;;;;8.50;55.20;;;;;;4100514;28;19918;-84
2023/05/19 00:10:18;;;;;;;;;;;8.40;55.20;;;;;;4088413;28;19961;-84
2023/05/19 00:12:19;;;;;;;;;;;8.40;55.30;;;;;;4110707;28;19918;-85
2023/05/19 00:14:20;;;;;;;;;;;8.30;55.40;;;;;;4115275;28;19918;-84
2023/05/19 00:16:21;;;;;;;;;;;8.30;55.50;;;;;;4098979;28;19969;-84
2023/05/19 00:18:25;;;;;;;;;;;8.40;55.20;;;;;;4127501;28;20425;-85
2023/05/19 00:20:25;;;;;;;;;;;8.20;55.30;;;;;;4116494;28;20288;-84
2023/05/19 00:22:26;;;;;;;;;;;8.30;55.60;;;;;;4115288;28;19914;-86
2023/05/19 00:24:27;;;;;;;;;;;8.20;55.50;;;;;;4112354;28;19918;-85
2023/05/19 00:26:28;;;;;;;;;;;8.10;55.50;;;;;;4114549;28;20396;-84
2023/05/19 00:28:28;;;;;;;;;;;8.20;55.50;;;;;;4096944;28;19954;-85
2023/05/19 00:30:29;;;;;;;;;;;8.10;55.60;;;;;;4112175;28;20396;-84
2023/05/19 00:32:30;;;;;;;;;;;8.00;55.60;;;;;;4125241;28;19941;-85
2023/05/19 00:34:30;;;;;;;;;;;8.00;55.80;;;;;;4112092;28;19922;-84
2023/05/19 00:36:31;;;;;;;;;;;8.00;55.80;;;;;;4111259;28;19921;-85
2023/05/19 00:38:32;;;;;;;;;;;8.00;55.80;;;;;;4114247;28;19921;-84
2023/05/19 00:40:34;;;;;;;;;;;7.90;55.70;;;;;;4110937;28;20407;-84
2023/05/19 00:42:37;;;;;;;;;;;7.90;55.60;;;;;;4110973;28;19926;-84
2023/05/19 00:44:39;;;;;;;;;;;7.90;55.70;;;;;;4112097;28;19960;-84
2023/05/19 00:46:40;;;;;;;;;;;7.90;55.60;;;;;;4111022;28;19928;-84
2023/05/19 00:48:43;;;;;;;;;;;7.90;55.60;;;;;;4096907;28;19915;-84
2023/05/19 00:50:44;;;;;;;;;;;7.90;55.70;;;;;;4110797;28;19914;-84
2023/05/19 00:52:45;;;;;;;;;;;7.80;55.70;;;;;;4108896;28;19922;-86
2023/05/19 00:54:47;;;;;;;;;;;7.80;55.90;;;;;;4126245;28;19922;-86
2023/05/19 00:56:48;;;;;;;;;;;7.80;56.00;;;;;;4108883;28;19950;-84
2023/05/19 00:58:52;;;;;;;;;;;7.70;55.90;;;;;;4111066;28;19922;-85
2023/05/19 01:00:54;;;;;;;;;;;7.70;56.00;;;;;;4094581;28;19954;-85
2023/05/19 01:02:55;;;;;;;;;;;7.70;56.10;;;;;;4110392;28;19957;-84
2023/05/19 01:04:57;;;;;;;;;;;7.70;56.10;;;;;;4114185;28;20426;-84
2023/05/19 01:06:58;;;;;;;;;;;7.60;56.20;;;;;;4111606;28;19922;-84
2023/05/19 01:08:59;;;;;;;;;;;7.70;56.20;;;;;;4112278;28;19933;-84
2023/05/19 01:11:00;;;;;;;;;;;7.50;56.20;;;;;;4093149;28;20561;-85
2023/05/19 01:13:04;;;;;;;;;;;7.50;56.20;;;;;;4113008;28;19914;-84
2023/05/19 01:15:05;;;;;;;;;;;7.60;56.30;;;;;;4093732;28;20076;-84
2023/05/19 01:17:13;;;;;;;;;;;7.50;56.30;;;;;;4112736;28;20403;-84
2023/05/19 01:19:20;;;;;;;;;;;7.50;56.30;;;;;;4109096;28;20305;-84
2023/05/19 01:21:24;;;;;;;;;;;7.50;56.30;;;;;;4108592;28;19922;-84
2023/05/19 01:23:28;;;;;;;;;;;7.50;56.20;;;;;;4107697;28;19962;-84
2023/05/19 01:25:41;;;;;;;;;;;7.40;56.20;;;;;;4125576;28;19918;-85
2023/05/19 01:28:00;;;;;;;;;;;7.40;56.30;;;;;;4112029;28;19996;-84
2023/05/19 01:30:03;;;;;;;;;;;7.40;56.40;;;;;;4111257;28;19982;-84
2023/05/19 01:32:05;;;;;;;;;;;7.30;56.50;;;;;;4112477;28;19914;-84
2023/05/19 01:34:06;;;;;;;;;;;7.40;56.50;;;;;;4109462;28;20022;-84
2023/05/19 01:36:07;;;;;;;;;;;7.30;56.40;;;;;;4124088;28;19918;-84
2023/05/19 01:38:09;;;;;;;;;;;7.30;56.40;;;;;;4109045;28;19922;-84
2023/05/19 01:40:09;;;;;;;;;;;7.20;56.50;;;;;;4110976;28;19996;-84
2023/05/19 01:42:11;;;;;;;;;;;7.20;56.60;;;;;;4111200;28;20392;-84
2023/05/19 01:44:12;;;;;;;;;;;7.20;56.60;;;;;;4110364;28;19918;-84
2023/05/19 01:46:13;;;;;;;;;;;7.20;56.40;;;;;;4109212;28;20383;-84
2023/05/19 01:48:14;;;;;;;;;;;7.20;56.40;;;;;;4110142;28;20005;-84
2023/05/19 01:50:15;;;;;;;;;;;7.20;56.80;;;;;;4122395;28;20455;-84
2023/05/19 01:52:16;;;;;;;;;;;7.10;56.70;;;;;;4109773;28;19985;-85
2023/05/19 01:54:34;;;;;;;;;;;7.00;56.30;;;;;;4107567;28;19918;-84
2023/05/19 01:56:53;;;;;;;;;;;7.00;56.40;;;;;;4111072;28;19914;-84
2023/05/19 01:58:59;;;;;;;;;;;7.00;56.50;;;;;;4096968;28;19926;-84
2023/05/19 02:00:59;;;;;;;;;;;7.00;56.60;;;;;;4109169;28;19918;-83
2023/05/19 02:03:06;;;;;;;;;;;6.90;56.70;;;;;;4123042;28;19924;-83
2023/05/19 02:05:19;;;;;;;;;;;6.80;56.60;;;;;;4109017;28;19974;-84
2023/05/19 02:07:42;;;;;;;;;;;6.90;56.80;;;;;;4111762;28;20423;-83
2023/05/19 02:10:01;;;;;;;;;;;6.90;57.00;;;;;;4124754;28;19953;-82
2023/05/19 02:12:05;;;;;;;;;;;6.80;56.90;;;;;;4108303;28;19914;-84
2023/05/19 02:14:14;;;;;;;;;;;6.80;56.80;;;;;;4121473;28;22065;-84
2023/05/19 02:16:16;;;;;;;;;;;6.80;56.60;;;;;;4094135;28;20026;-84
2023/05/19 02:18:19;;;;;;;;;;;6.80;56.80;;;;;;4109389;28;19988;-84
2023/05/19 02:20:23;;;;;;;;;;;6.70;56.80;;;;;;4109169;28;19972;-83
2023/05/19 02:22:24;;;;;;;;;;;6.70;56.70;;;;;;4106199;28;19914;-84
2023/05/19 02:24:25;;;;;;;;;;;6.70;56.80;;;;;;4106739;28;19918;-84
2023/05/19 02:26:28;;;;;;;;;;;6.60;56.90;;;;;;4107356;28;20257;-83
2023/05/19 02:28:29;;;;;;;;;;;6.60;57.00;;;;;;4095769;28;19914;-83
2023/05/19 02:30:30;;;;;;;;;;;6.70;57.10;;;;;;4121701;28;19922;-83
2023/05/19 02:32:32;;;;;;;;;;;6.60;57.00;;;;;;4109726;28;19945;-83
2023/05/19 02:34:56;;;;;;;;;;;6.60;57.10;;;;;;4112282;28;19944;-83
2023/05/19 02:37:17;;;;;;;;;;;6.50;57.20;;;;;;4108328;28;19925;-84
2023/05/19 02:39:17;;;;;;;;;;;6.60;57.30;;;;;;4106586;28;20299;-82
2023/05/19 02:41:38;;;;;;;;;;;6.60;57.40;;;;;;4110758;28;19973;-83
2023/05/19 02:43:58;;;;;;;;;;;6.50;57.50;;;;;;4111045;28;19926;-83
2023/05/19 02:46:19;;;;;;;;;;;6.50;57.50;;;;;;4106359;28;19950;-85
2023/05/19 02:48:40;;;;;;;;;;;6.50;58.10;;;;;;4120967;28;19922;-83
2023/05/19 02:51:03;;;;;;;;;;;6.50;57.60;;;;;;4108965;28;19921;-83
2023/05/19 02:53:27;;;;;;;;;;;6.50;57.60;;;;;;4122396;28;20218;-83
2023/05/19 02:55:47;;;;;;;;;;;6.40;57.60;;;;;;4106624;28;19922;-84
2023/05/19 02:58:11;;;;;;;;;;;6.40;57.80;;;;;;4107312;28;19933;-85
2023/05/19 03:00:15;;;;;;;;;;;6.40;57.70;;;;;;4092829;28;19935;-83
2023/05/19 03:02:19;;;;;;;;;;;6.40;57.60;;;;;;4124969;28;19914;-84
2023/05/19 03:04:22;;;;;;;;;;;6.40;57.50;;;;;;4108695;28;19918;-83
2023/05/19 03:06:23;;;;;;;;;;;6.30;57.70;;;;;;4108403;28;19962;-85
2023/05/19 03:08:24;;;;;;;;;;;6.30;57.90;;;;;;4107572;28;19918;-83
2023/05/19 03:10:24;;;;;;;;;;;6.30;57.70;;;;;;4109085;28;19922;-83
2023/05/19 03:12:25;;;;;;;;;;;6.30;57.80;;;;;;4109930;28;19949;-83
2023/05/19 03:14:25;;;;;;;;;;;6.30;57.70;;;;;;4108786;28;20407;-83
2023/05/19 03:16:30;;;;;;;;;;;6.30;57.90;;;;;;4112987;28;19924;-83
2023/05/19 03:18:33;;;;;;;;;;;6.30;57.90;;;;;;4107703;28;19922;-83
2023/05/19 03:20:34;;;;;;;;;;;6.30;57.90;;;;;;4111688;28;19958;-82
2023/05/19 03:22:38;;;;;;;;;;;6.20;57.80;;;;;;4109395;28;19994;-82
2023/05/19 03:24:38;;;;;;;;;;;6.20;57.90;;;;;;4123874;28;19921;-83
2023/05/19 03:26:45;;;;;;;;;;;6.10;57.90;;;;;;4113091;28;20404;-83
2023/05/19 03:28:48;;;;;;;;;;;6.20;57.80;;;;;;4094614;29;20396;-84
2023/05/19 03:30:49;;;;;;;;;;;6.10;57.90;;;;;;4129034;28;19990;-82
2023/05/19 03:32:50;;;;;;;;;;;6.20;57.80;;;;;;4111346;28;19914;-84
2023/05/19 03:34:51;;;;;;;;;;;6.20;57.90;;;;;;4114599;28;19922;-83
2023/05/19 03:36:52;;;;;;;;;;;6.10;58.00;;;;;;4114348;28;19933;-82
2023/05/19 03:38:54;;;;;;;;;;;6.10;58.20;;;;;;4111557;28;20443;-82
2023/05/19 03:40:58;;;;;;;;;;;6.10;58.00;;;;;;4098989;28;19922;-82
2023/05/19 03:42:59;;;;;;;;;;;6.00;57.80;;;;;;4108658;28;19914;-84
2023/05/19 03:45:00;;;;;;;;;;;6.20;59.40;;;;;;4109296;28;19941;-82
2023/05/19 03:47:01;;;;;;;;;;;6.10;59.60;;;;;;4109137;28;19925;-83
2023/05/19 03:49:01;;;;;;;;;;;6.10;58.80;;;;;;4110597;28;19921;-84
2023/05/19 03:51:03;;;;;;;;;;;6.10;58.40;;;;;;4096008;28;20296;-83
2023/05/19 03:53:03;;;;;;;;;;;6.00;57.90;;;;;;4094477;28;19918;-83
2023/05/19 03:55:05;;;;;;;;;;;6.10;58.10;;;;;;4096614;28;19914;-83
2023/05/19 03:57:10;;;;;;;;;;;6.00;58.40;;;;;;4096055;28;19914;-84
2023/05/19 03:59:11;;;;;;;;;;;6.10;58.80;;;;;;4108482;28;20010;-84
2023/05/19 04:01:12;;;;;;;;;;;6.10;59.60;;;;;;4103115;28;19929;-84
2023/05/19 04:03:13;;;;;;;;;;;6.10;60.10;;;;;;4098056;28;19918;-83
2023/05/19 04:05:13;;;;;;;;;;;6.20;60.70;;;;;;4107502;28;19926;-84
2023/05/19 04:07:14;;;;;;;;;;;6.20;61.40;;;;;;4108568;28;19918;-84
2023/05/19 04:09:15;;;;;;;;;;;6.20;61.40;;;;;;4109015;28;20012;-83
2023/05/19 04:11:16;;;;;;;;;;;6.30;61.20;;;;;;4102352;28;19918;-83
2023/05/19 04:13:17;;;;;;;;;;;6.40;61.70;;;;;;4109311;28;20332;-83
2023/05/19 04:15:17;;;;;;;;;;;6.40;62.80;;;;;;4091570;28;20330;-83
2023/05/19 04:17:18;;;;;;;;;;;6.50;63.70;;;;;;4107743;28;19918;-83
2023/05/19 04:19:18;;;;;;;;;;;6.60;64.30;;;;;;4111348;28;20458;-83
2023/05/19 04:21:22;;;;;;;;;;;6.60;65.10;;;;;;4099033;28;19965;-83
2023/05/19 04:23:23;;;;;;;;;;;6.70;65.50;;;;;;4093625;28;19914;-83
2023/05/19 04:25:24;;;;;;;;;;;6.90;65.10;;;;;;4103856;28;19920;-83
2023/05/19 04:27:26;;;;;;;;;;;7.00;66.10;;;;;;4107194;28;19915;-83
2023/05/19 04:29:28;;;;;;;;;;;7.00;66.50;;;;;;4109727;28;20340;-83
2023/05/19 04:31:29;;;;;;;;;;;7.20;67.00;;;;;;4107854;28;19934;-82
2023/05/19 04:33:29;;;;;;;;;;;7.30;66.70;;;;;;4106200;28;20304;-82
2023/05/19 04:35:32;;;;;;;;;;;7.40;68.00;;;;;;4104548;28;20020;-83
2023/05/19 04:37:36;;;;;;;;;;;7.60;68.50;;;;;;4106295;28;19958;-83
2023/05/19 04:39:39;;;;;;;;;;;7.60;68.50;;;;;;4104237;28;19922;-83
2023/05/19 04:41:43;;;;;;;;;;;7.70;68.20;;;;;;4090572;28;19941;-84
2023/05/19 04:43:44;;;;;;;;;;;7.90;67.70;;;;;;3783588;28;8910069;-84
2023/05/19 04:45:46;;;;;;;;;;;8.00;68.10;;;;;;4105567;28;20008;-83
2023/05/19 04:48:11;;;;;;;;;;;8.10;68.50;;;;;;4106878;28;19918;-84
2023/05/19 04:50:34;;;;;;;;;;;8.30;68.60;;;;;;4115535;28;19925;-85
2023/05/19 04:52:58;;;;;;;;;;;8.20;68.70;;;;;;4103269;28;19965;-84
2023/05/19 04:55:19;;;;;;;;;;;8.40;68.90;;;;;;4101495;28;19921;-85
2023/05/19 04:57:39;;;;;;;;;;;8.50;68.90;;;;;;4106320;28;19926;-82
2023/05/19 05:00:00;;;;;;;;;;;8.60;69.30;;;;;;4108390;28;19953;-82
2023/05/19 05:02:14;;;;;;;;;;;8.90;69.60;;;;;;4109247;28;19918;-83
2023/05/19 05:04:14;;;;;;;;;;;9.00;70.00;;;;;;4105236;28;20134;-83
2023/05/19 05:06:15;;;;;;;;;;;9.10;70.10;;;;;;4107003;28;19918;-84
2023/05/19 05:08:21;;;;;;;;;;;9.20;70.50;;;;;;4092074;28;20502;-83
2023/05/19 05:10:22;;;;;;;;;;;9.30;70.80;;;;;;4089583;28;19993;-83
2023/05/19 05:12:23;;;;;;;;;;;9.50;71.20;;;;;;4105568;28;20139;-83
2023/05/19 05:14:24;;;;;;;;;;;9.60;71.20;;;;;;4093030;28;20005;-83
2023/05/19 05:16:25;;;;;;;;;;;9.70;71.40;;;;;;4116447;28;19922;-83
2023/05/19 05:18:28;;;;;;;;;;;9.80;71.50;;;;;;4102862;28;19968;-85
2023/05/19 05:20:29;;;;;;;;;;;10.00;70.60;;;;;;4104240;28;19925;-82
2023/05/19 05:22:30;;;;;;;;;;;10.10;70.00;;;;;;4110347;28;19999;-84
2023/05/19 05:24:31;;;;;;;;;;;10.30;69.20;;;;;;4102486;28;20455;-83
2023/05/19 05:26:32;;;;;;;;;;;10.40;69.50;;;;;;4120394;28;19960;-84
2023/05/19 05:28:35;;;;;;;;;;;10.50;70.70;;;;;;4108662;28;19910;-83
2023/05/19 05:30:36;;;;;;;;;;;10.60;69.90;;;;;;4107689;28;19945;-82
2023/05/19 05:32:36;;;;;;;;;;;10.80;69.10;;;;;;4094165;28;19966;-83
2023/05/19 05:34:38;;;;;;;;;;;10.80;68.20;;;;;;4110120;28;19925;-83
2023/05/19 05:36:39;;;;;;;;;;;11.00;67.40;;;;;;4102899;28;19945;-84
2023/05/19 05:38:39;;;;;;;;;;;11.00;68.40;;;;;;4119358;28;20509;-83
2023/05/19 05:40:42;;;;;;;;;;;11.20;68.20;;;;;;4118964;28;19992;-82
2023/05/19 05:42:43;;;;;;;;;;;11.20;68.40;;;;;;4124089;28;20370;-83
2023/05/19 05:44:44;;;;;;;;;;;11.20;68.60;;;;;;4108646;28;20001;-81
2023/05/19 05:49:15;;;;;;;;;;;11.40;66.10;;;;;;4106804;28;19922;-87
2023/05/19 05:51:16;;;;;;;;;;;11.50;67.80;;;;;;4102449;28;20024;-86
2023/05/19 05:53:18;;;;;;;;;;;11.60;66.90;;;;;;4091457;28;19941;-85
2023/05/19 05:55:19;;;;;;;;;;;11.70;67.70;;;;;;4105933;28;19918;-84
2023/05/19 05:57:20;;;;;;;;;;;11.70;68.70;;;;;;4120657;28;19918;-85
2023/05/19 05:59:23;;;;;;;;;;;11.80;68.20;;;;;;4089068;28;19926;-84
2023/05/19 06:01:24;;;;;;;;;;;11.80;69.20;;;;;;4105484;28;19918;-84
2023/05/19 06:03:25;;;;;;;;;;;11.90;69.60;;;;;;4107993;28;20005;-84
2023/05/19 06:05:34;;;;;;;;;;;11.90;68.60;;;;;;4120737;28;19913;-85
2023/05/19 06:07:55;;;;;;;;;;;11.90;68.30;;;;;;4104584;28;19918;-84
2023/05/19 06:10:15;;;;;;;;;;;11.90;67.70;;;;;;4105811;28;19957;-85
2023/05/19 06:12:39;;;;;;;;;;;11.90;67.60;;;;;;4104574;28;19994;-84
2023/05/19 06:15:01;;;;;;;;;;;12.00;67.20;;;;;;4104755;28;19915;-85
2023/05/19 06:17:21;;;;;;;;;;;12.00;66.20;;;;;;4103812;28;19957;-84
2023/05/19 06:19:42;;;;;;;;;;;12.00;65.00;;;;;;4105182;28;19925;-84
2023/05/19 06:22:03;;;;;;;;;;;12.00;64.80;;;;;;4104251;28;19981;-85
2023/05/19 06:24:03;;;;;;;;;;;12.00;64.80;;;;;;4103705;28;20978;-85
2023/05/19 06:26:04;;;;;;;;;;;12.00;64.40;;;;;;4106126;28;19922;-85
2023/05/19 06:28:05;;;;;;;;;;;12.00;64.70;;;;;;4103821;28;19922;-86
2023/05/19 06:30:07;;;;;;;;;;;12.10;65.10;;;;;;4093328;28;19918;-85
2023/05/19 06:32:08;;;;;;;;;;;12.00;63.40;;;;;;4106341;28;20017;-84
2023/05/19 06:34:16;;;;;;;;;;;12.10;63.40;;;;;;4104002;28;20014;-83
2023/05/19 06:36:20;;;;;;;;;;;12.10;63.10;;;;;;4089840;28;20009;-83
2023/05/19 06:38:20;;;;;;;;;;;12.00;62.50;;;;;;4107370;28;19926;-85
2023/05/19 06:40:24;;;;;;;;;;;12.10;62.80;;;;;;4099969;28;19922;-83
2023/05/19 06:42:25;;;;;;;;;;;12.20;63.00;;;;;;4122597;28;19918;-82
2023/05/19 06:44:25;;;;;;;;;;;12.30;63.10;;;;;;4119655;28;19928;-83
2023/05/19 06:46:26;;;;;;;;;;;12.30;63.00;;;;;;4105927;28;19914;-83
2023/05/19 06:48:26;;;;;;;;;;;12.30;63.00;;;;;;4101488;28;19922;-83
2023/05/19 06:50:27;;;;;;;;;;;12.40;62.90;;;;;;4107800;28;19922;-85
2023/05/19 06:52:30;;;;;;;;;;;12.40;62.90;;;;;;4123222;28;19913;-83
2023/05/19 06:54:33;;;;;;;;;;;12.50;63.20;;;;;;4101921;28;19918;-83
2023/05/19 06:56:39;;;;;;;;;;;12.50;63.70;;;;;;4115633;28;20695;-83
2023/05/19 06:58:45;;;;;;;;;;;12.50;63.10;;;;;;4096710;28;19922;-83
2023/05/19 07:01:01;;;;;;;;;;;12.60;63.00;;;;;;4106000;28;20019;-82
2023/05/19 07:03:21;;;;;;;;;;;12.60;63.00;;;;;;4106943;28;19918;-85
2023/05/19 07:05:46;;;;;;;;;;;12.60;62.80;;;;;;4113038;28;19922;-85
2023/05/19 07:08:04;;;;;;;;;;;12.70;62.90;;;;;;4093507;28;21657;-83
2023/05/19 07:10:25;;;;;;;;;;;12.70;63.50;;;;;;4103903;28;19925;-84
2023/05/19 07:12:45;;;;;;;;;;;12.80;63.10;;;;;;4109064;28;19951;-85
2023/05/19 07:15:06;;;;;;;;;;;12.70;63.50;;;;;;4109414;28;19990;-84
2023/05/19 07:17:26;;;;;;;;;;;12.70;62.80;;;;;;4109889;28;19925;-85
2023/05/19 07:19:47;;;;;;;;;;;12.70;62.60;;;;;;4110228;28;19925;-84
2023/05/19 07:22:08;;;;;;;;;;;12.80;62.40;;;;;;4110313;28;20020;-84
2023/05/19 07:24:39;;;;;;;;;;;;;;;;;;;;;
2023/05/19 07:27:06;;;;;;;;;;;12.80;62.10;;;;;;4107153;28;19922;-83
2023/05/19 07:29:26;;;;;;;;;;;12.80;62.30;;;;;;4105350;28;19922;-84
2023/05/19 07:31:27;;;;;;;;;;;12.80;62.50;;;;;;4121665;28;20383;-84
2023/05/19 07:33:27;;;;;;;;;;;12.90;62.20;;;;;;4103538;28;19918;-84
2023/05/19 07:35:28;;;;;;;;;;;12.90;62.10;;;;;;4106557;28;19923;-84
2023/05/19 07:37:32;;;;;;;;;;;12.90;62.00;;;;;;4121730;28;19924;-85
2023/05/19 07:39:33;;;;;;;;;;;13.00;62.40;;;;;;4105154;28;19921;-84
2023/05/19 07:41:34;;;;;;;;;;;13.00;62.20;;;;;;4109723;28;20379;-84
2023/05/19 07:43:35;;;;;;;;;;;13.00;62.40;;;;;;4103047;28;19933;-85
2023/05/19 07:45:41;;;;;;;;;;;13.10;62.30;;;;;;4104790;28;19918;-84
2023/05/19 07:47:41;;;;;;;;;;;13.10;62.30;;;;;;4124808;28;20601;-85
2023/05/19 07:49:42;;;;;;;;;;;13.10;62.50;;;;;;4102590;28;19922;-85
2023/05/19 07:51:43;;;;;;;;;;;13.20;62.00;;;;;;4106620;28;19918;-85
2023/05/19 07:53:43;;;;;;;;;;;13.30;61.80;;;;;;4104941;28;19914;-84
2023/05/19 07:55:45;;;;;;;;;;;13.30;61.60;;;;;;4095069;28;19923;-84
2023/05/19 07:57:47;;;;;;;;;;;13.30;61.40;;;;;;4106865;28;19919;-85
2023/05/19 07:59:52;;;;;;;;;;;13.40;61.40;;;;;;4119989;28;20012;-86
2023/05/19 08:01:52;;;;;;;;;;;13.50;62.10;;;;;;4104940;28;20320;-85
2023/05/19 08:04:07;;;;;;;;;;;13.50;60.90;;;;;;4103162;28;20396;-85
2023/05/19 08:06:08;;;;;;;;;;;13.50;60.50;;;;;;4101692;28;19918;-85
2023/05/19 08:08:28;;;;;;;;;;;13.50;60.30;;;;;;4108539;28;19929;-85
2023/05/19 08:10:50;;;;;;;;;;;13.60;60.10;;;;;;4104939;28;19944;-85
2023/05/19 08:13:10;;;;;;;;;;;13.70;60.10;;;;;;4101174;28;19925;-86
2023/05/19 08:15:31;;;;;;;;;;;13.70;60.10;;;;;;4104039;28;19928;-84
2023/05/19 08:17:54;;;;;;;;;;;13.70;59.90;;;;;;4104292;28;19914;-86
2023/05/19 08:20:15;;;;;;;;;;;13.80;60.00;;;;;;4103552;28;19922;-85
2023/05/19 08:22:36;;;;;;;;;;;13.90;60.00;;;;;;4101713;28;20011;-85
2023/05/19 08:24:56;;;;;;;;;;;14.00;59.90;;;;;;4096823;28;19929;-85
2023/05/19 08:27:17;;;;;;;;;;;14.00;59.70;;;;;;4103557;28;20005;-84
2023/05/19 08:29:38;;;;;;;;;;;14.00;59.40;;;;;;4100091;28;20033;-85
2023/05/19 08:31:41;;;;;;;;;;;14.00;58.80;;;;;;4120770;28;19924;-86
2023/05/19 08:33:42;;;;;;;;;;;14.10;58.60;;;;;;4086890;28;20338;-85
2023/05/19 08:35:42;;;;;;;;;;;14.10;58.70;;;;;;4106156;28;19918;-84
2023/05/19 08:37:46;;;;;;;;;;;14.10;58.70;;;;;;4091343;28;19918;-85
2023/05/19 08:39:47;;;;;;;;;;;14.20;58.80;;;;;;4115078;28;19918;-85
2023/05/19 08:41:48;;;;;;;;;;;14.20;58.70;;;;;;4104821;28;19985;-85
2023/05/19 08:43:49;;;;;;;;;;;14.20;58.80;;;;;;4089299;28;19918;-85
2023/05/19 08:45:49;;;;;;;;;;;14.30;58.90;;;;;;4085961;28;19946;-86
2023/05/19 08:47:50;;;;;;;;;;;14.30;57.40;;;;;;4088493;28;19930;-86
2023/05/19 08:49:52;;;;;;;;;;;14.30;56.60;;;;;;4104187;28;19972;-87
2023/05/19 08:51:52;;;;;;;;;;;14.40;56.60;;;;;;4094185;28;20500;-85
2023/05/19 08:53:56;;;;;;;;;;;14.40;56.90;;;;;;4121673;28;19917;-85
2023/05/19 08:56:01;;;;;;;;;;;14.40;56.50;;;;;;4121636;28;19909;-85
2023/05/19 08:58:02;;;;;;;;;;;14.40;56.80;;;;;;4089208;28;19969;-89
2023/05/19 09:00:21;;;;;;;;;;;14.50;57.10;;;;;;4105704;28;19914;-84
2023/05/19 09:02:22;;;;;;;;;;;14.60;57.10;;;;;;4104204;28;19965;-86
2023/05/19 09:04:31;;;;;;;;;;;14.60;56.10;;;;;;4106370;28;19918;-85
2023/05/19 09:06:41;;;;;;;;;;;14.60;56.20;;;;;;4112681;28;19910;-86
2023/05/19 09:08:42;;;;;;;;;;;14.70;56.20;;;;;;4110673;28;19918;-86
2023/05/19 09:10:52;;;;;;;;;;;14.70;56.60;;;;;;4111604;28;19933;-85
2023/05/19 09:12:52;;;;;;;;;;;14.80;56.90;;;;;;4108094;28;20440;-86
2023/05/19 09:14:53;;;;;;;;;;;14.90;56.80;;;;;;4105222;28;19910;-86
2023/05/19 09:16:57;;;;;;;;;;;14.80;55.20;;;;;;4108263;28;20343;-85
2023/05/19 09:19:20;;;;;;;;;;;14.90;53.80;;;;;;4107005;28;20300;-85
2023/05/19 09:21:40;;;;;;;;;;;15.00;54.50;;;;;;4109488;28;20001;-84
2023/05/19 09:24:05;;;;;;;;;;;15.00;54.20;;;;;;4107523;28;20605;-85
2023/05/19 09:26:35;;;;;;;;;;;15.00;53.90;;;;;;4106484;28;20042;-85
2023/05/19 09:28:39;;;;;;;;;;;15.00;53.80;;;;;;4095763;28;19934;-86
2023/05/19 09:31:04;;;;;;;;;;;15.00;53.90;;;;;;4106667;28;20376;-87
2023/05/19 09:33:24;;;;;;;;;;;14.90;53.90;;;;;;4107200;28;19918;-85
2023/05/19 09:35:48;;;;;;;;;;;14.90;54.30;;;;;;4114691;28;19917;-85
2023/05/19 09:38:08;;;;;;;;;;;14.90;53.90;;;;;;4106373;28;19922;-84
2023/05/19 09:40:31;;;;;;;;;;;14.90;53.70;;;;;;4104845;28;19914;-85
2023/05/19 09:42:57;;;;;;;;;;;14.90;54.20;;;;;;4111539;28;19914;-85
2023/05/19 09:45:08;;;;;;;;;;;14.80;54.80;;;;;;4124367;28;20277;-85
2023/05/19 09:47:20;;;;;;;;;;;14.90;55.10;;;;;;4096450;28;19918;-85
2023/05/19 09:49:27;;;;;;;;;;;14.80;55.40;;;;;;4096800;28;19954;-84
2023/05/19 09:51:51;;;;;;;;;;;14.80;55.90;;;;;;4109614;28;20005;-85
2023/05/19 09:53:54;;;;;;;;;;;14.90;56.00;;;;;;4111920;28;19918;-85
2023/05/19 09:56:22;;;;;;;;;;;14.80;56.00;;;;;;4102965;28;19934;-85
2023/05/19 09:58:38;;;;;;;;;;;14.80;56.00;;;;;;4109308;28;19918;-85
2023/05/19 10:00:42;;;;;;;;;;;14.90;56.00;;;;;;4108115;28;19922;-83
2023/05/19 10:02:49;;;;;;;;;;;14.90;55.50;;;;;;4120476;28;20483;-85
2023/05/19 10:04:51;;;;;;;;;;;14.80;54.60;;;;;;4110526;28;19918;-84
2023/05/19 10:07:13;;;;;;;;;;;14.70;55.30;;;;;;4106130;28;19918;-86
2023/05/19 10:09:15;;;;;;;;;;;14.70;56.00;;;;;;4095445;28;20622;-86
2023/05/19 10:11:35;;;;;;;;;;;14.70;55.70;;;;;;4122087;28;20458;-85
2023/05/19 10:13:59;;;;;;;;;;;14.70;56.50;;;;;;4106046;28;19914;-83
2023/05/19 10:16:27;;;;;;;;;;;14.80;55.30;;;;;;4105138;28;20009;-84
2023/05/19 10:18:32;;;;;;;;;;;14.80;55.40;;;;;;4092228;28;19973;-84
2023/05/19 10:20:33;;;;;;;;;;;14.90;55.80;;;;;;4111607;28;19938;-84
2023/05/19 10:22:34;;;;;;;;;;;15.00;55.40;;;;;;4105804;28;19921;-84
2023/05/19 10:24:35;;;;;;;;;;;15.10;53.60;;;;;;4105911;28;19914;-84
2023/05/19 10:26:36;;;;;;;;;;;15.10;54.10;;;;;;4109536;28;20017;-84
2023/05/19 10:28:39;;;;;;;;;;;15.20;54.00;;;;;;4096009;28;19964;-84
2023/05/19 10:31:01;;;;;;;;;;;15.20;48.90;;;;;;4105747;28;20631;-84
2023/05/19 10:33:03;;;;;;;;;;;15.40;49.10;;;;;;4104006;28;19918;-84
2023/05/19 10:35:35;;;;;;;;;;;15.40;50.30;;;;;;4108624;28;19961;-84
2023/05/19 10:38:09;;;;;;;;;;;15.40;51.40;;;;;;4111889;28;19972;-84
2023/05/19 10:40:36;;;;;;;;;;;15.30;51.30;;;;;;4111875;28;20358;-84
2023/05/19 10:43:06;;;;;;;;;;;15.40;51.40;;;;;;4112473;28;19915;-84
2023/05/19 10:45:28;;;;;;;;;;;15.30;50.60;;;;;;4121470;28;19922;-84
2023/05/19 10:47:50;;;;;;;;;;;15.30;51.00;;;;;;4108044;28;19962;-84
2023/05/19 10:50:10;;;;;;;;;;;15.30;51.00;;;;;;4109950;28;19921;-84
2023/05/19 10:52:35;;;;;;;;;;;15.30;49.20;;;;;;4112190;28;19922;-84
2023/05/19 10:54:55;;;;;;;;;;;15.30;49.40;;;;;;4110763;28;20583;-84
2023/05/19 10:56:56;;;;;;;;;;;15.30;49.80;;;;;;4094751;28;20013;-84
2023/05/19 10:59:02;;;;;;;;;;;15.30;49.50;;;;;;4092295;28;19925;-84
2023/05/19 11:01:06;;;;;;;;;;;15.30;48.10;;;;;;4097408;28;19914;-87
2023/05/19 11:03:14;;;;;;;;;;;15.20;48.10;;;;;;4108403;28;19945;-84
2023/05/19 11:05:17;;;;;;;;;;;15.20;47.20;;;;;;4106444;28;19929;-84
2023/05/19 11:07:23;;;;;;;;;;;15.10;47.50;;;;;;4112509;28;20408;-84
2023/05/19 11:09:25;;;;;;;;;;;15.10;48.00;;;;;;4125866;28;19989;-84
2023/05/19 11:11:27;;;;;;;;;;;15.20;48.70;;;;;;4112286;28;20005;-83
2023/05/19 11:13:27;;;;;;;;;;;15.10;47.80;;;;;;4111172;28;19918;-86
2023/05/19 11:15:28;;;;;;;;;;;15.10;48.40;;;;;;4110668;28;19977;-85
2023/05/19 11:17:28;;;;;;;;;;;15.10;48.60;;;;;;4109651;28;19918;-85
2023/05/19 11:19:30;;;;;;;;;;;15.10;48.00;;;;;;4107772;28;19950;-85
2023/05/19 11:21:49;;;;;;;;;;;15.10;48.00;;;;;;4123420;28;19921;-85
2023/05/19 11:23:50;;;;;;;;;;;15.10;47.20;;;;;;4110696;28;19918;-84
2023/05/19 11:26:11;;;;;;;;;;;15.20;46.40;;;;;;4108996;28;19918;-84
2023/05/19 11:28:32;;;;;;;;;;;15.20;45.40;;;;;;4108461;28;19922;-84
2023/05/19 11:30:53;;;;;;;;;;;15.10;43.30;;;;;;4110470;28;19948;-84
2023/05/19 11:33:18;;;;;;;;;;;15.20;44.20;;;;;;4109790;28;19974;-85
2023/05/19 11:35:38;;;;;;;;;;;15.00;43.20;;;;;;4110669;28;19929;-84
2023/05/19 11:38:00;;;;;;;;;;;14.90;43.10;;;;;;4110763;28;19918;-83
2023/05/19 11:40:21;;;;;;;;;;;15.00;44.60;;;;;;4105708;28;19914;-83
2023/05/19 11:42:43;;;;;;;;;;;14.80;41.40;;;;;;4108210;28;19914;-83
2023/05/19 11:45:04;;;;;;;;;;;14.90;43.50;;;;;;4109916;28;19918;-83
2023/05/19 11:47:05;;;;;;;;;;;14.90;44.20;;;;;;4110683;28;19918;-83
2023/05/19 11:49:06;;;;;;;;;;;14.90;44.50;;;;;;4109282;28;20447;-83
2023/05/19 11:51:06;;;;;;;;;;;14.90;45.40;;;;;;4111867;28;19918;-84
2023/05/19 11:53:10;;;;;;;;;;;14.90;47.00;;;;;;4093503;28;19918;-85
2023/05/19 11:55:15;;;;;;;;;;;14.90;45.80;;;;;;4110566;28;20009;-84
2023/05/19 11:57:21;;;;;;;;;;;14.90;47.70;;;;;;4112817;28;19960;-85
2023/05/19 11:59:28;;;;;;;;;;;14.90;47.50;;;;;;4110900;28;19919;-84
2023/05/19 12:01:30;;;;;;;;;;;14.90;47.80;;;;;;4109133;28;19929;-83
2023/05/19 12:03:31;;;;;;;;;;;14.90;48.70;;;;;;4114500;28;19922;-84
2023/05/19 12:05:35;;;;;;;;;;;14.90;49.30;;;;;;4109764;28;19915;-84
2023/05/19 12:07:46;;;;;;;;;;;14.90;47.50;;;;;;4110765;28;20000;-84
2023/05/19 12:09:47;;;;;;;;;;;14.80;48.70;;;;;;4108850;28;19977;-84
2023/05/19 12:11:48;;;;;;;;;;;14.90;50.40;;;;;;4111486;28;19914;-83
2023/05/19 12:13:53;;;;;;;;;;;14.90;49.00;;;;;;4106827;28;20001;-84
2023/05/19 12:15:57;;;;;;;;;;;15.00;49.20;;;;;;4109783;28;20331;-84
2023/05/19 12:17:59;;;;;;;;;;;15.00;47.00;;;;;;4106951;28;19922;-83
2023/05/19 12:20:02;;;;;;;;;;;14.90;46.80;;;;;;4105772;28;19918;-84
2023/05/19 12:22:22;;;;;;;;;;;14.90;45.50;;;;;;4108597;28;19915;-85
2023/05/19 12:24:23;;;;;;;;;;;15.00;44.30;;;;;;4108959;28;19925;-84
2023/05/19 12:26:49;;;;;;;;;;;14.90;43.10;;;;;;4109746;28;19918;-84
2023/05/19 12:29:11;;;;;;;;;;;14.90;44.20;;;;;;4108691;28;19928;-85
2023/05/19 12:31:33;;;;;;;;;;;15.00;45.60;;;;;;4109078;28;19965;-83